createdAt,value
2022-08-27T00:01:22.105Z,18.20
2022-08-27T00:03:49.121Z,18.20
2022-08-27T00:06:18.378Z,18.20
2022-08-27T00:08:47.516Z,18.20
2022-08-27T00:11:14.419Z,18.10
2022-08-27T00:13:41.609Z,18.10
2022-08-27T00:16:10.417Z,18.10
2022-08-27T00:18:38.569Z,18.10
2022-08-27T00:21:06.822Z,18.10
2022-08-27T00:23:35.036Z,18.10
2022-08-27T00:26:02.839Z,18.10
2022-08-27T00:28:30.996Z,18.10
2022-08-27T00:30:58.300Z,18.20
2022-08-27T00:33:26.124Z,18.10
2022-08-27T00:35:53.693Z,18.10
2022-08-27T00:38:22.163Z,18.20
2022-08-27T00:40:50.297Z,18.10
2022-08-27T00:43:29.290Z,18.10
2022-08-27T00:46:03.486Z,18.10
2022-08-27T00:48:35.326Z,18.10
2022-08-27T00:51:02.861Z,18.10
2022-08-27T00:53:33.332Z,18.10
2022-08-27T00:56:11.964Z,18.10
2022-08-27T00:58:45.706Z,18.10
2022-08-27T01:01:16.058Z,18.10
2022-08-27T01:03:47.195Z,18.10
2022-08-27T01:06:16.247Z,18.10
2022-08-27T01:08:51.683Z,18.10
2022-08-27T01:11:18.942Z,18.10
2022-08-27T01:13:59.654Z,18.10
2022-08-27T01:16:35.740Z,18.00
2022-08-27T01:19:07.545Z,18.10
2022-08-27T01:21:37.636Z,18.00
2022-08-27T01:24:28.473Z,18.10
2022-08-27T01:26:57.985Z,18.10
2022-08-27T01:29:25.042Z,18.00
2022-08-27T01:31:51.989Z,18.10
2022-08-27T01:34:18.899Z,18.10
2022-08-27T01:36:45.739Z,18.10
2022-08-27T01:39:12.928Z,18.10
2022-08-27T01:41:40.031Z,18.10
2022-08-27T01:44:07.023Z,18.10
2022-08-27T01:46:33.963Z,18.10
2022-08-27T01:49:00.909Z,18.10
2022-08-27T01:51:27.752Z,18.10
2022-08-27T01:53:54.833Z,18.10
2022-08-27T01:56:21.887Z,18.10
2022-08-27T01:58:48.747Z,18.10
2022-08-27T02:01:16.921Z,18.10
2022-08-27T02:03:44.676Z,18.10
2022-08-27T02:06:12.463Z,18.00
2022-08-27T02:08:39.576Z,18.00
2022-08-27T02:11:08.334Z,18.10
2022-08-27T02:13:35.719Z,18.00
2022-08-27T02:16:02.912Z,18.10
2022-08-27T02:18:29.807Z,18.00
2022-08-27T02:20:56.692Z,18.00
2022-08-27T02:23:23.518Z,18.00
2022-08-27T02:25:51.159Z,18.00
2022-08-27T02:28:18.012Z,18.00
2022-08-27T02:30:45.061Z,18.00
2022-08-27T02:33:13.560Z,18.00
2022-08-27T02:35:43.060Z,18.00
2022-08-27T02:38:12.751Z,17.90
2022-08-27T02:40:40.014Z,17.90
2022-08-27T02:43:07.668Z,17.90
2022-08-27T02:45:36.621Z,18.00
2022-08-27T02:48:05.341Z,17.90
2022-08-27T02:50:32.312Z,17.90
2022-08-27T02:53:00.484Z,17.90
2022-08-27T02:55:28.313Z,17.90
2022-08-27T02:57:55.289Z,17.90
2022-08-27T03:00:23.657Z,17.90
2022-08-27T03:02:50.731Z,17.90
2022-08-27T03:05:19.055Z,17.90
2022-08-27T03:07:46.476Z,17.90
2022-08-27T03:10:16.058Z,17.90
2022-08-27T03:12:44.345Z,17.90
2022-08-27T03:15:14.035Z,17.90
2022-08-27T03:17:59.889Z,17.90
2022-08-27T03:20:27.223Z,17.90
2022-08-27T03:22:54.532Z,17.90
2022-08-27T03:25:21.465Z,17.90
2022-08-27T03:27:48.372Z,17.90
2022-08-27T03:30:19.238Z,17.90
2022-08-27T03:32:46.518Z,17.90
2022-08-27T03:35:14.094Z,17.90
2022-08-27T03:37:41.074Z,17.90
2022-08-27T03:40:09.674Z,17.90
2022-08-27T03:42:37.201Z,17.80
2022-08-27T03:45:05.183Z,17.90
2022-08-27T03:47:32.380Z,17.80
2022-08-27T03:50:00.770Z,17.90
2022-08-27T03:52:28.357Z,17.80
2022-08-27T03:54:55.858Z,17.90
2022-08-27T03:57:22.759Z,17.90
2022-08-27T03:59:49.667Z,17.90
2022-08-27T04:02:21.350Z,17.90
2022-08-27T04:04:48.322Z,17.90
2022-08-27T04:07:15.245Z,17.90
2022-08-27T04:09:42.418Z,17.90
2022-08-27T04:12:09.442Z,17.90
2022-08-27T04:14:36.349Z,17.90
2022-08-27T04:17:03.483Z,17.90
2022-08-27T04:19:33.208Z,17.90
2022-08-27T04:22:02.428Z,17.90
2022-08-27T04:24:31.342Z,17.90
2022-08-27T04:26:58.935Z,17.90
2022-08-27T04:29:25.987Z,17.90
2022-08-27T04:31:53.332Z,17.90
2022-08-27T04:34:21.237Z,17.90
2022-08-27T04:36:48.466Z,17.90
2022-08-27T04:39:16.003Z,17.90
2022-08-27T04:41:43.126Z,17.90
2022-08-27T04:44:10.896Z,17.90
2022-08-27T04:46:39.927Z,17.90
2022-08-27T04:49:12.172Z,17.90
2022-08-27T04:51:41.593Z,17.90
2022-08-27T04:54:10.391Z,17.90
2022-08-27T04:56:37.962Z,17.90
2022-08-27T04:59:08.074Z,18.00
2022-08-27T05:01:35.628Z,18.00
2022-08-27T05:04:03.418Z,18.00
2022-08-27T05:06:30.402Z,18.00
2022-08-27T05:08:57.452Z,18.10
2022-08-27T05:11:27.191Z,18.10
2022-08-27T05:13:54.196Z,18.00
2022-08-27T05:16:22.926Z,18.10
2022-08-27T05:18:51.718Z,18.10
2022-08-27T05:21:18.739Z,18.10
2022-08-27T05:23:46.180Z,18.10
2022-08-27T05:26:13.292Z,18.10
2022-08-27T05:28:40.132Z,18.20
2022-08-27T05:31:09.852Z,18.20
2022-08-27T05:33:38.566Z,18.20
2022-08-27T05:36:06.364Z,18.20
2022-08-27T05:38:34.158Z,18.30
2022-08-27T05:41:16.793Z,18.40
2022-08-27T05:43:49.685Z,18.30
2022-08-27T05:46:20.555Z,18.40
2022-08-27T05:48:48.863Z,18.50
2022-08-27T05:51:25.839Z,18.50
2022-08-27T05:53:59.138Z,18.50
2022-08-27T05:56:39.031Z,18.50
2022-08-27T05:59:40.513Z,18.50
2022-08-27T06:02:08.208Z,18.60
2022-08-27T06:04:35.084Z,18.60
2022-08-27T06:07:02.333Z,18.60
2022-08-27T06:09:32.432Z,18.70
2022-08-27T06:12:28.078Z,18.70
2022-08-27T06:14:56.597Z,18.70
2022-08-27T06:17:23.449Z,18.70
2022-08-27T06:19:50.775Z,18.70
2022-08-27T06:22:17.730Z,18.70
2022-08-27T06:24:44.605Z,18.70
2022-08-27T06:27:14.765Z,18.70
2022-08-27T06:29:42.158Z,18.70
2022-08-27T06:32:14.750Z,18.70
2022-08-27T06:34:41.733Z,18.60
2022-08-27T06:37:09.447Z,18.60
2022-08-27T06:39:38.221Z,18.60
2022-08-27T06:42:06.768Z,18.60
2022-08-27T06:44:34.228Z,18.70
2022-08-27T06:47:01.296Z,18.80
2022-08-27T06:49:28.139Z,18.70
2022-08-27T06:51:54.994Z,18.70
2022-08-27T06:54:22.007Z,18.70
2022-08-27T06:56:50.099Z,18.80
2022-08-27T06:59:18.653Z,18.70
2022-08-27T07:01:49.468Z,18.70
2022-08-27T07:04:30.774Z,18.70
2022-08-27T07:07:00.292Z,18.60
2022-08-27T07:09:27.189Z,18.60
2022-08-27T07:11:54.815Z,18.60
2022-08-27T07:14:21.993Z,18.60
2022-08-27T07:17:03.632Z,18.60
2022-08-27T07:19:33.668Z,18.60
2022-08-27T07:22:00.613Z,18.60
2022-08-27T07:24:28.627Z,18.60
2022-08-27T07:26:55.836Z,18.60
2022-08-27T07:29:22.871Z,18.60
2022-08-27T07:31:55.826Z,18.60
2022-08-27T07:34:22.716Z,18.60
2022-08-27T07:36:52.795Z,18.70
2022-08-27T07:39:19.621Z,18.70
2022-08-27T07:42:04.834Z,18.70
2022-08-27T07:44:34.692Z,18.70
2022-08-27T07:47:04.510Z,18.70
2022-08-27T07:49:35.266Z,18.90
2022-08-27T07:52:03.398Z,19.00
2022-08-27T07:54:34.320Z,19.00
2022-08-27T07:57:02.376Z,19.10
2022-08-27T07:59:31.597Z,19.20
2022-08-27T08:01:58.559Z,19.30
2022-08-27T08:04:26.729Z,19.40
2022-08-27T08:06:55.644Z,19.50
2022-08-27T08:09:24.556Z,19.60
2022-08-27T08:11:53.723Z,19.70
2022-08-27T08:14:21.195Z,19.80
2022-08-27T08:16:49.973Z,20.00
2022-08-27T08:19:17.206Z,20.10
2022-08-27T08:21:44.170Z,20.20
2022-08-27T08:24:15.294Z,20.30
2022-08-27T08:26:42.349Z,20.40
2022-08-27T08:29:18.068Z,20.50
2022-08-27T08:31:46.940Z,20.50
2022-08-27T08:34:19.137Z,20.50
2022-08-27T08:36:46.293Z,20.50
2022-08-27T08:39:21.961Z,20.60
2022-08-27T08:41:56.344Z,20.60
2022-08-27T08:44:50.938Z,20.80
2022-08-27T08:47:34.263Z,21.00
2022-08-27T08:50:26.169Z,21.30
2022-08-27T08:53:12.657Z,21.40
2022-08-27T08:55:56.269Z,21.60
2022-08-27T08:58:45.535Z,21.60
2022-08-27T09:01:16.468Z,21.50
2022-08-27T09:03:52.595Z,21.40
2022-08-27T09:06:46.058Z,21.30
2022-08-27T09:09:33.166Z,21.30
2022-08-27T09:12:09.014Z,21.40
2022-08-27T09:14:41.627Z,21.50
2022-08-27T09:17:18.580Z,21.50
2022-08-27T09:19:45.729Z,21.50
2022-08-27T09:22:16.296Z,21.60
2022-08-27T09:25:00.583Z,21.70
2022-08-27T09:27:29.805Z,21.70
2022-08-27T09:30:11.574Z,21.70
2022-08-27T09:32:40.478Z,21.80
2022-08-27T09:35:12.551Z,21.90
2022-08-27T09:37:46.496Z,21.90
2022-08-27T09:40:27.387Z,22.10
2022-08-27T09:42:57.399Z,22.20
2022-08-27T09:45:28.653Z,22.30
2022-08-27T09:48:16.588Z,22.30
2022-08-27T09:50:52.021Z,22.40
2022-08-27T09:53:21.949Z,22.40
2022-08-27T09:55:53.977Z,22.50
2022-08-27T09:58:32.301Z,22.60
2022-08-27T10:01:05.694Z,22.80
2022-08-27T10:03:34.035Z,23.00
2022-08-27T10:06:01.399Z,23.10
2022-08-27T10:08:46.451Z,23.30
2022-08-27T10:11:23.047Z,23.40
2022-08-27T10:14:13.750Z,23.40
2022-08-27T10:17:30.891Z,23.30
2022-08-27T10:20:30.080Z,23.10
2022-08-27T10:23:19.412Z,22.80
2022-08-27T10:26:24.590Z,22.60
2022-08-27T10:28:58.224Z,22.60
2022-08-27T10:31:45.015Z,22.70
2022-08-27T10:34:52.545Z,22.90
2022-08-27T10:37:36.781Z,23.30
2022-08-27T10:40:20.539Z,23.80
2022-08-27T10:42:56.397Z,24.10
2022-08-27T10:45:31.963Z,24.20
2022-08-27T10:48:25.970Z,24.00
2022-08-27T10:51:19.227Z,24.30
2022-08-27T10:54:09.410Z,24.60
2022-08-27T10:57:26.305Z,24.70
2022-08-27T11:00:13.109Z,24.70
2022-08-27T11:02:45.038Z,24.50
2022-08-27T11:05:20.205Z,24.40
2022-08-27T11:07:55.523Z,24.30
2022-08-27T11:10:33.374Z,24.30
2022-08-27T11:13:10.600Z,24.30
2022-08-27T11:15:42.721Z,24.20
2022-08-27T11:18:48.286Z,24.20
2022-08-27T11:21:40.148Z,24.30
2022-08-27T11:24:34.948Z,24.50
2022-08-27T11:27:06.223Z,24.70
2022-08-27T11:30:00.130Z,25.00
2022-08-27T11:32:50.066Z,25.20
2022-08-27T11:35:23.011Z,25.00
2022-08-27T11:38:14.218Z,25.10
2022-08-27T11:40:59.937Z,25.10
2022-08-27T11:43:33.902Z,24.80
2022-08-27T11:46:55.227Z,24.70
2022-08-27T11:50:03.671Z,24.60
2022-08-27T11:52:41.375Z,24.60
2022-08-27T11:55:25.157Z,24.60
2022-08-27T11:58:18.337Z,24.70
2022-08-27T12:00:46.867Z,24.80
2022-08-27T12:03:20.075Z,24.90
2022-08-27T12:05:49.875Z,24.90
2022-08-27T12:08:27.498Z,24.80
2022-08-27T12:11:03.592Z,24.60
2022-08-27T12:14:02.048Z,24.20
2022-08-27T12:16:41.059Z,24.40
2022-08-27T12:19:30.105Z,24.60
2022-08-27T12:23:04.950Z,24.70
2022-08-27T12:25:32.508Z,24.80
2022-08-27T12:28:05.787Z,24.90
2022-08-27T12:30:36.206Z,24.80
2022-08-27T12:33:20.934Z,24.80
2022-08-27T12:35:52.640Z,24.80
2022-08-27T12:38:19.823Z,24.80
2022-08-27T12:40:55.660Z,24.80
2022-08-27T12:43:26.237Z,24.90
2022-08-27T12:46:16.986Z,24.80
2022-08-27T12:48:45.807Z,24.80
2022-08-27T12:51:34.737Z,24.80
2022-08-27T12:54:12.034Z,24.80
2022-08-27T12:57:09.153Z,24.80
2022-08-27T13:00:13.091Z,24.80
2022-08-27T13:02:49.771Z,24.60
2022-08-27T13:05:21.520Z,24.60
2022-08-27T13:07:50.808Z,24.60
2022-08-27T13:10:33.263Z,24.60
2022-08-27T13:13:10.043Z,24.60
2022-08-27T13:15:43.678Z,24.60
2022-08-27T13:18:12.064Z,24.50
2022-08-27T13:20:40.815Z,24.50
2022-08-27T13:23:20.431Z,24.50
2022-08-27T13:26:09.918Z,24.50
2022-08-27T13:28:40.181Z,24.50
2022-08-27T13:31:10.516Z,24.50
2022-08-27T13:33:40.012Z,24.50
2022-08-27T13:36:09.577Z,24.60
2022-08-27T13:38:49.276Z,24.40
2022-08-27T13:41:34.216Z,24.50
2022-08-27T13:44:18.524Z,24.50
2022-08-27T13:46:58.445Z,24.40
2022-08-27T13:49:28.202Z,24.30
2022-08-27T13:52:27.575Z,24.30
2022-08-27T13:55:08.577Z,24.20
2022-08-27T13:57:50.049Z,24.00
2022-08-27T14:00:20.828Z,23.90
2022-08-27T14:02:55.596Z,23.80
2022-08-27T14:05:23.358Z,23.70
2022-08-27T14:07:53.080Z,23.70
2022-08-27T14:10:32.466Z,23.60
2022-08-27T14:13:25.304Z,23.50
2022-08-27T14:15:55.248Z,23.40
2022-08-27T14:18:57.912Z,23.50
2022-08-27T14:21:23.413Z,23.60
2022-08-27T14:23:51.881Z,23.60
2022-08-27T14:26:19.096Z,23.70
2022-08-27T14:28:46.695Z,23.80
2022-08-27T14:31:14.652Z,23.90
2022-08-27T14:33:41.779Z,24.00
2022-08-27T14:36:09.903Z,24.00
2022-08-27T14:38:41.005Z,24.00
2022-08-27T14:41:08.311Z,24.10
2022-08-27T14:43:36.519Z,24.20
2022-08-27T14:46:03.810Z,24.40
2022-08-27T14:48:34.500Z,24.30
2022-08-27T14:51:17.513Z,24.40
2022-08-27T14:53:45.467Z,24.60
2022-08-27T14:56:13.941Z,24.80
2022-08-27T14:58:40.873Z,25.00
2022-08-27T15:01:08.214Z,25.20
2022-08-27T15:03:38.921Z,25.50
2022-08-27T15:06:06.467Z,26.00
2022-08-27T15:08:33.832Z,26.20
2022-08-27T15:11:03.731Z,26.30
2022-08-27T15:13:56.307Z,26.30
2022-08-27T15:16:54.078Z,26.40
2022-08-27T15:19:47.392Z,26.30
2022-08-27T15:22:51.215Z,26.20
2022-08-27T15:25:50.409Z,26.10
2022-08-27T15:28:39.514Z,25.80
2022-08-27T15:31:30.990Z,25.40
2022-08-27T15:33:58.434Z,25.20
2022-08-27T15:36:25.476Z,24.90
2022-08-27T15:38:55.366Z,24.60
2022-08-27T15:41:25.222Z,24.30
2022-08-27T15:43:56.718Z,24.00
2022-08-27T15:46:25.634Z,23.60
2022-08-27T15:48:53.135Z,23.40
2022-08-27T15:51:31.389Z,23.30
2022-08-27T15:53:59.747Z,23.10
2022-08-27T15:56:30.388Z,23.10
2022-08-27T15:59:00.896Z,23.00
2022-08-27T16:01:35.841Z,23.00
2022-08-27T16:04:04.634Z,22.90
2022-08-27T16:06:32.285Z,22.80
2022-08-27T16:08:59.393Z,22.80
2022-08-27T16:11:26.683Z,22.80
2022-08-27T16:13:55.574Z,22.70
2022-08-27T16:16:30.603Z,22.70
2022-08-27T16:19:01.221Z,22.70
2022-08-27T16:21:29.827Z,22.60
2022-08-27T16:23:57.357Z,22.60
2022-08-27T16:26:24.349Z,22.50
2022-08-27T16:28:51.323Z,22.40
2022-08-27T16:31:18.585Z,22.50
2022-08-27T16:33:46.330Z,22.40
2022-08-27T16:36:13.481Z,22.40
2022-08-27T16:38:40.950Z,22.40
2022-08-27T16:41:08.703Z,22.20
2022-08-27T16:43:35.657Z,22.10
2022-08-27T16:46:02.583Z,22.10
2022-08-27T16:48:48.408Z,21.90
2022-08-27T16:51:29.464Z,21.90
2022-08-27T16:53:59.995Z,21.70
2022-08-27T16:56:28.485Z,21.50
2022-08-27T16:58:56.262Z,21.30
2022-08-27T17:01:24.809Z,21.10
2022-08-27T17:04:16.382Z,21.00
2022-08-27T17:06:42.366Z,20.90
2022-08-27T17:09:10.414Z,20.70
2022-08-27T17:11:41.826Z,20.60
2022-08-27T17:14:10.825Z,20.50
2022-08-27T17:16:41.465Z,20.40
2022-08-27T17:19:09.719Z,20.30
2022-08-27T17:21:39.869Z,20.20
2022-08-27T17:24:12.882Z,20.20
2022-08-27T17:26:40.027Z,20.10
2022-08-27T17:29:07.501Z,20.10
2022-08-27T17:31:37.588Z,20.00
2022-08-27T17:34:07.292Z,20.00
2022-08-27T17:36:34.241Z,20.00
2022-08-27T17:39:02.738Z,20.00
2022-08-27T17:41:39.890Z,20.00
2022-08-27T17:44:22.440Z,20.00
2022-08-27T17:46:51.119Z,20.00
2022-08-27T17:49:18.469Z,19.90
2022-08-27T17:51:48.336Z,19.90
2022-08-27T17:54:33.934Z,19.90
2022-08-27T17:57:04.089Z,19.80
2022-08-27T17:59:30.941Z,19.80
2022-08-27T18:01:58.269Z,19.70
2022-08-27T18:04:25.587Z,19.80
2022-08-27T18:06:52.618Z,19.70
2022-08-27T18:09:19.485Z,19.70
2022-08-27T18:11:47.046Z,19.70
2022-08-27T18:14:18.241Z,19.60
2022-08-27T18:16:46.495Z,19.60
2022-08-27T18:19:14.021Z,19.50
2022-08-27T18:21:46.979Z,19.40
2022-08-27T18:24:15.162Z,19.50
2022-08-27T18:26:43.377Z,19.50
2022-08-27T18:29:11.460Z,19.40
2022-08-27T18:31:38.558Z,19.40
2022-08-27T18:34:05.489Z,19.40
2022-08-27T18:36:32.472Z,19.30
2022-08-27T18:38:59.433Z,19.30
2022-08-27T18:41:30.484Z,19.20
2022-08-27T18:43:59.096Z,19.20
2022-08-27T18:46:26.371Z,19.10
2022-08-27T18:48:53.325Z,19.00
2022-08-27T18:51:20.466Z,19.10
2022-08-27T18:53:48.613Z,19.00
2022-08-27T18:56:18.776Z,19.00
2022-08-27T18:58:46.911Z,19.00
2022-08-27T19:01:17.713Z,19.00
2022-08-27T19:03:48.997Z,18.90
2022-08-27T19:06:18.540Z,18.90
2022-08-27T19:08:45.591Z,18.90
2022-08-27T19:11:13.278Z,18.80
2022-08-27T19:13:41.097Z,18.80
2022-08-27T19:16:14.009Z,18.80
2022-08-27T19:18:42.156Z,18.80
2022-08-27T19:21:09.672Z,18.80
2022-08-27T19:23:37.598Z,18.80
2022-08-27T19:26:06.227Z,18.80
2022-08-27T19:28:40.228Z,18.80
2022-08-27T19:31:08.427Z,18.80
2022-08-27T19:33:36.500Z,18.80
2022-08-27T19:36:05.152Z,18.70
2022-08-27T19:38:33.078Z,18.80
2022-08-27T19:41:01.472Z,18.80
2022-08-27T19:43:29.045Z,18.80
2022-08-27T19:45:57.377Z,18.80
2022-08-27T19:48:24.701Z,18.80
2022-08-27T19:50:51.606Z,18.80
2022-08-27T19:53:18.877Z,18.80
2022-08-27T19:55:46.201Z,18.80
2022-08-27T19:58:15.086Z,18.80
2022-08-27T20:00:42.986Z,18.80
2022-08-27T20:03:11.054Z,18.80
2022-08-27T20:05:39.136Z,18.80
2022-08-27T20:08:06.183Z,18.70
2022-08-27T20:10:36.481Z,18.70
2022-08-27T20:13:05.004Z,18.70
2022-08-27T20:15:32.976Z,18.70
2022-08-27T20:18:02.213Z,18.70
2022-08-27T20:20:29.456Z,18.70
2022-08-27T20:22:56.459Z,18.70
2022-08-27T20:25:24.783Z,18.70
2022-08-27T20:27:52.785Z,18.60
2022-08-27T20:30:22.975Z,18.60
2022-08-27T20:32:50.323Z,18.60
2022-08-27T20:35:18.117Z,18.60
2022-08-27T20:37:46.295Z,18.60
2022-08-27T20:40:17.365Z,18.50
2022-08-27T20:42:44.868Z,18.50
2022-08-27T20:45:13.253Z,18.40
2022-08-27T20:47:41.983Z,18.50
2022-08-27T20:50:09.986Z,18.40
2022-08-27T20:52:39.636Z,18.40
2022-08-27T20:55:08.337Z,18.50
2022-08-27T20:57:35.188Z,18.40
2022-08-27T21:00:20.175Z,18.30
2022-08-27T21:02:47.924Z,18.30
2022-08-27T21:05:16.861Z,18.30
2022-08-27T21:07:44.887Z,18.20
2022-08-27T21:10:11.768Z,18.20
2022-08-27T21:12:38.600Z,18.20
2022-08-27T21:15:07.713Z,18.10
2022-08-27T21:17:35.175Z,18.10
2022-08-27T21:20:02.829Z,18.10
2022-08-27T21:22:30.544Z,18.00
2022-08-27T21:24:57.406Z,18.00
2022-08-27T21:27:24.334Z,18.00
2022-08-27T21:29:52.533Z,18.10
2022-08-27T21:32:19.438Z,18.10
2022-08-27T21:34:46.336Z,18.10
2022-08-27T21:37:15.033Z,18.10
2022-08-27T21:39:42.984Z,18.10
2022-08-27T21:42:11.402Z,18.00
2022-08-27T21:44:38.896Z,18.10
2022-08-27T21:47:06.374Z,18.10
2022-08-27T21:49:33.879Z,18.00
2022-08-27T21:52:03.542Z,18.00
2022-08-27T21:54:36.530Z,17.90
2022-08-27T21:57:04.494Z,17.90
2022-08-27T21:59:42.482Z,17.90
2022-08-27T22:02:28.802Z,17.80
2022-08-27T22:04:56.764Z,17.80
2022-08-27T22:07:24.368Z,17.70
2022-08-27T22:09:51.337Z,17.70
2022-08-27T22:12:18.362Z,17.70
2022-08-27T22:14:45.306Z,17.70
2022-08-27T22:17:15.757Z,17.70
2022-08-27T22:19:42.896Z,17.70
2022-08-27T22:22:10.104Z,17.60
2022-08-27T22:24:37.088Z,17.70
2022-08-27T22:27:04.285Z,17.60
2022-08-27T22:29:31.692Z,17.60
2022-08-27T22:31:58.694Z,17.60
2022-08-27T22:34:25.736Z,17.60
2022-08-27T22:36:53.064Z,17.60
2022-08-27T22:39:20.140Z,17.60
2022-08-27T22:41:49.210Z,17.60
2022-08-27T22:44:16.774Z,17.60
2022-08-27T22:46:43.771Z,17.60
2022-08-27T22:49:10.812Z,17.60
2022-08-27T22:51:37.728Z,17.60
2022-08-27T22:54:04.812Z,17.60
2022-08-27T22:56:31.824Z,17.60
2022-08-27T22:58:58.747Z,17.60
2022-08-27T23:01:25.660Z,17.60
2022-08-27T23:03:53.845Z,17.50
2022-08-27T23:06:20.989Z,17.60
2022-08-27T23:08:48.470Z,17.60
2022-08-27T23:11:16.094Z,17.50
2022-08-27T23:13:43.005Z,17.60
2022-08-27T23:16:10.132Z,17.60
2022-08-27T23:18:38.593Z,17.60
2022-08-27T23:21:06.327Z,17.60
2022-08-27T23:23:34.331Z,17.50
2022-08-27T23:26:19.793Z,17.50
2022-08-27T23:28:46.986Z,17.50
2022-08-27T23:31:14.586Z,17.50
2022-08-27T23:33:42.023Z,17.50
2022-08-27T23:36:10.032Z,17.50
2022-08-27T23:38:37.524Z,17.60
2022-08-27T23:41:04.668Z,17.60
2022-08-27T23:43:31.495Z,17.70
2022-08-27T23:45:58.692Z,17.70
2022-08-27T23:48:26.033Z,17.80
2022-08-27T23:50:52.899Z,17.80
2022-08-27T23:53:19.779Z,17.80
2022-08-27T23:55:46.642Z,17.90
2022-08-27T23:58:13.730Z,17.90
